createdAt,value
2018-08-24T00:00:08.504Z,0
2018-08-24T00:00:49.071Z,0
2018-08-24T00:01:29.658Z,0
2018-08-24T00:02:10.228Z,0
2018-08-24T00:02:50.783Z,0
2018-08-24T00:03:31.982Z,0
2018-08-24T00:04:12.657Z,0
2018-08-24T00:04:53.296Z,0
2018-08-24T00:05:33.848Z,0
2018-08-24T00:06:14.422Z,0
2018-08-24T00:06:55.174Z,0
2018-08-24T00:07:35.860Z,0
2018-08-24T00:08:16.521Z,0
2018-08-24T00:08:57.123Z,0
2018-08-24T00:09:37.734Z,0
2018-08-24T00:10:18.344Z,0
2018-08-24T00:10:58.961Z,0
2018-08-24T00:11:39.583Z,0
2018-08-24T00:12:20.197Z,0
2018-08-24T00:13:00.753Z,0
2018-08-24T00:13:41.348Z,0
2018-08-24T00:14:21.954Z,0
2018-08-24T00:15:02.576Z,0
2018-08-24T00:15:43.894Z,0
2018-08-24T00:16:24.424Z,0
2018-08-24T00:17:05.007Z,0
2018-08-24T00:17:45.662Z,0
2018-08-24T00:18:26.229Z,0
2018-08-24T00:19:06.797Z,0
2018-08-24T00:19:47.366Z,0
2018-08-24T00:20:27.926Z,0
2018-08-24T00:21:08.488Z,0
2018-08-24T00:21:49.083Z,0
2018-08-24T00:22:29.654Z,0
2018-08-24T00:23:10.213Z,0
2018-08-24T00:23:50.793Z,0
2018-08-24T00:24:31.340Z,0
2018-08-24T00:25:11.900Z,0
2018-08-24T00:25:52.468Z,0
2018-08-24T00:26:33.018Z,0
2018-08-24T00:27:13.587Z,0
2018-08-24T00:27:54.144Z,0
2018-08-24T00:28:34.702Z,0
2018-08-24T00:29:15.260Z,0
2018-08-24T00:29:55.819Z,0
2018-08-24T00:30:36.392Z,0
2018-08-24T00:31:16.993Z,0
2018-08-24T00:31:57.545Z,0
2018-08-24T00:32:38.111Z,0
2018-08-24T00:33:18.667Z,0
2018-08-24T00:33:59.275Z,0
2018-08-24T00:34:39.797Z,0
2018-08-24T00:35:20.347Z,0
2018-08-24T00:36:00.894Z,0
2018-08-24T00:36:41.464Z,0
2018-08-24T00:37:22.011Z,0
2018-08-24T00:38:02.593Z,0
2018-08-24T00:38:43.153Z,0
2018-08-24T00:39:23.716Z,0
2018-08-24T00:40:04.280Z,0
2018-08-24T00:40:44.854Z,0
2018-08-24T00:41:25.512Z,0
2018-08-24T00:42:06.092Z,0
2018-08-24T00:42:46.690Z,0
2018-08-24T00:43:27.213Z,0
2018-08-24T00:44:07.763Z,0
2018-08-24T00:44:48.339Z,0
2018-08-24T00:45:28.953Z,0
2018-08-24T00:46:09.477Z,0
2018-08-24T00:46:50.046Z,0
2018-08-24T00:47:30.619Z,0
2018-08-24T00:48:11.207Z,0
2018-08-24T00:48:51.784Z,0
2018-08-24T00:49:32.344Z,0
2018-08-24T00:50:12.898Z,0
2018-08-24T00:50:53.466Z,0
2018-08-24T00:51:34.022Z,0
2018-08-24T00:52:14.584Z,0
2018-08-24T00:52:55.195Z,0
2018-08-24T00:53:35.768Z,0
2018-08-24T00:54:16.328Z,0
2018-08-24T00:54:56.904Z,0
2018-08-24T00:55:37.472Z,0
2018-08-24T00:56:18.032Z,0
2018-08-24T00:56:58.579Z,0
2018-08-24T00:57:39.161Z,0
2018-08-24T00:58:19.718Z,0
2018-08-24T00:59:00.286Z,0
2018-08-24T00:59:40.855Z,0
2018-08-24T01:00:21.432Z,0
2018-08-24T01:01:02.016Z,0
2018-08-24T01:01:42.603Z,0
2018-08-24T01:02:23.187Z,0
2018-08-24T01:03:03.775Z,0
2018-08-24T01:03:44.328Z,0
2018-08-24T01:04:24.904Z,0
2018-08-24T01:05:05.512Z,0
2018-08-24T01:05:46.123Z,0
2018-08-24T01:06:26.761Z,0
2018-08-24T01:07:07.318Z,0
2018-08-24T01:07:47.909Z,0
2018-08-24T01:08:28.468Z,0
2018-08-24T01:09:09.033Z,0
2018-08-24T01:09:49.603Z,0
2018-08-24T01:10:30.170Z,0
2018-08-24T01:11:10.732Z,0
2018-08-24T01:11:51.297Z,0
2018-08-24T01:12:31.866Z,0
2018-08-24T01:13:12.439Z,0
2018-08-24T01:13:52.999Z,0
2018-08-24T01:14:33.562Z,0
2018-08-24T01:15:14.112Z,0
2018-08-24T01:15:54.686Z,0
2018-08-24T01:16:35.244Z,0
2018-08-24T01:17:15.843Z,0
2018-08-24T01:17:56.448Z,0
2018-08-24T01:18:37.032Z,0
2018-08-24T01:19:17.592Z,0
2018-08-24T01:19:58.168Z,0
2018-08-24T01:20:38.733Z,0
2018-08-24T01:21:19.282Z,0
2018-08-24T01:21:59.853Z,0
2018-08-24T01:22:40.415Z,0
2018-08-24T01:23:20.991Z,0
2018-08-24T01:24:01.548Z,0
2018-08-24T01:24:42.114Z,0
2018-08-24T01:25:22.669Z,0
2018-08-24T01:26:03.257Z,0
2018-08-24T01:26:43.816Z,0
2018-08-24T01:27:24.368Z,0
2018-08-24T01:28:04.933Z,0
2018-08-24T01:28:45.494Z,0
2018-08-24T01:29:26.063Z,0
2018-08-24T01:30:06.624Z,0
2018-08-24T01:30:47.185Z,0
2018-08-24T01:31:27.748Z,0
2018-08-24T01:32:08.310Z,0
2018-08-24T01:32:48.869Z,0
2018-08-24T01:33:29.446Z,0
2018-08-24T01:34:09.988Z,0
2018-08-24T01:34:50.552Z,0
2018-08-24T01:35:31.117Z,0
2018-08-24T01:36:11.709Z,0
2018-08-24T01:36:52.249Z,0
2018-08-24T01:37:32.809Z,0
2018-08-24T01:38:13.380Z,0
2018-08-24T01:38:53.950Z,0
2018-08-24T01:39:34.551Z,0
2018-08-24T01:40:15.112Z,0
2018-08-24T01:40:55.681Z,0
2018-08-24T01:41:36.245Z,0
2018-08-24T01:42:16.812Z,0
2018-08-24T01:42:57.402Z,0
2018-08-24T01:43:37.958Z,0
2018-08-24T01:44:18.513Z,0
2018-08-24T01:44:59.084Z,0
2018-08-24T01:45:39.641Z,0
2018-08-24T01:46:20.192Z,0
2018-08-24T01:47:00.771Z,0
2018-08-24T01:47:41.341Z,0
2018-08-24T01:48:21.911Z,0
2018-08-24T01:49:02.469Z,0
2018-08-24T01:49:43.029Z,0
2018-08-24T01:50:23.587Z,0
2018-08-24T01:51:04.152Z,0
2018-08-24T01:51:44.718Z,0
2018-08-24T01:52:25.292Z,0
2018-08-24T01:53:05.885Z,0
2018-08-24T01:53:46.443Z,0
2018-08-24T01:54:27.010Z,0
2018-08-24T01:55:07.576Z,0
2018-08-24T01:55:48.131Z,0
2018-08-24T01:56:28.685Z,0
2018-08-24T01:57:09.263Z,0
2018-08-24T01:57:49.825Z,0
2018-08-24T01:58:30.410Z,0
2018-08-24T01:59:11.072Z,0
2018-08-24T01:59:51.568Z,0
2018-08-24T02:00:32.122Z,0
2018-08-24T02:01:12.696Z,0
2018-08-24T02:01:53.306Z,0
2018-08-24T02:02:33.884Z,0
2018-08-24T02:03:14.434Z,0
2018-08-24T02:03:55.001Z,0
2018-08-24T02:04:35.575Z,0
2018-08-24T02:05:16.145Z,0
2018-08-24T02:05:56.712Z,0
2018-08-24T02:06:37.292Z,0
2018-08-24T02:07:17.892Z,0
2018-08-24T02:07:58.464Z,0
2018-08-24T02:08:39.019Z,0
2018-08-24T02:09:19.609Z,0
2018-08-24T02:10:00.183Z,0
2018-08-24T02:10:40.751Z,0
2018-08-24T02:11:21.328Z,0
2018-08-24T02:12:01.878Z,0
2018-08-24T02:12:42.443Z,0
2018-08-24T02:13:23.009Z,0
2018-08-24T02:14:03.589Z,0
2018-08-24T02:14:44.184Z,0
2018-08-24T02:15:24.753Z,0
2018-08-24T02:16:05.317Z,0
2018-08-24T02:16:45.887Z,0
2018-08-24T02:17:26.443Z,0
2018-08-24T02:18:07.018Z,0
2018-08-24T02:18:47.574Z,0
2018-08-24T02:19:28.131Z,0
2018-08-24T02:20:08.705Z,0
2018-08-24T02:20:49.257Z,0
2018-08-24T02:21:29.816Z,0
2018-08-24T02:22:10.363Z,0
2018-08-24T02:22:50.930Z,0
2018-08-24T02:23:31.493Z,0
2018-08-24T02:24:12.064Z,0
2018-08-24T02:24:52.620Z,0
2018-08-24T02:25:33.185Z,0
2018-08-24T02:26:13.744Z,0
2018-08-24T02:26:54.307Z,0
2018-08-24T02:27:34.901Z,0
2018-08-24T02:28:15.456Z,0
2018-08-24T02:28:56.023Z,0
2018-08-24T02:29:36.594Z,0
2018-08-24T02:30:17.173Z,0
2018-08-24T02:30:57.726Z,0
2018-08-24T02:31:38.292Z,0
2018-08-24T02:32:18.860Z,0
2018-08-24T02:32:59.439Z,0
2018-08-24T02:33:39.999Z,0
2018-08-24T02:34:20.570Z,0
2018-08-24T02:35:01.127Z,0
2018-08-24T02:35:41.686Z,0
2018-08-24T02:36:22.260Z,0
2018-08-24T02:37:02.861Z,0
2018-08-24T02:37:43.436Z,0
2018-08-24T02:38:23.999Z,0
2018-08-24T02:39:04.595Z,0
2018-08-24T02:39:45.193Z,0
2018-08-24T02:40:25.762Z,0
2018-08-24T02:41:06.340Z,0
2018-08-24T02:41:46.893Z,0
2018-08-24T02:42:27.463Z,0
2018-08-24T02:43:08.028Z,0
2018-08-24T02:43:48.592Z,0
2018-08-24T02:44:29.150Z,0
2018-08-24T02:45:09.802Z,0
2018-08-24T02:45:50.276Z,0
2018-08-24T02:46:30.832Z,0
2018-08-24T02:47:11.394Z,0
2018-08-24T02:47:51.955Z,0
2018-08-24T02:48:32.533Z,0
2018-08-24T02:49:13.086Z,0
2018-08-24T02:49:53.709Z,0
2018-08-24T02:50:34.236Z,0
2018-08-24T02:51:14.812Z,0
2018-08-24T02:51:55.420Z,0
2018-08-24T02:52:35.966Z,0
2018-08-24T02:53:16.531Z,0
2018-08-24T02:53:57.120Z,0
2018-08-24T02:54:37.692Z,0
2018-08-24T02:55:18.255Z,0
2018-08-24T02:55:58.844Z,0
2018-08-24T02:56:39.392Z,0
2018-08-24T02:57:19.949Z,0
2018-08-24T02:58:00.541Z,0
2018-08-24T02:58:41.104Z,0
2018-08-24T02:59:21.673Z,0
2018-08-24T03:00:02.229Z,0
2018-08-24T03:00:42.787Z,0
2018-08-24T03:01:23.372Z,0
2018-08-24T03:02:03.927Z,0
2018-08-24T03:02:44.497Z,0
2018-08-24T03:03:25.047Z,0
2018-08-24T03:04:05.644Z,0
2018-08-24T03:04:46.200Z,0
2018-08-24T03:05:27.009Z,0
2018-08-24T03:06:07.311Z,0
2018-08-24T03:06:47.892Z,0
2018-08-24T03:07:28.464Z,0
2018-08-24T03:08:09.049Z,0
2018-08-24T03:08:49.596Z,0
2018-08-24T03:09:30.219Z,0
2018-08-24T03:10:10.801Z,0
2018-08-24T03:10:51.438Z,0
2018-08-24T03:11:32.035Z,0
2018-08-24T03:12:12.669Z,0
2018-08-24T03:12:53.227Z,0
2018-08-24T03:13:33.828Z,0
2018-08-24T03:14:14.407Z,0
2018-08-24T03:14:54.988Z,0
2018-08-24T03:15:35.535Z,0
2018-08-24T03:16:16.147Z,0
2018-08-24T03:16:56.706Z,0
2018-08-24T03:17:37.262Z,0
2018-08-24T03:18:17.842Z,0
2018-08-24T03:18:58.374Z,0
2018-08-24T03:19:38.926Z,0
2018-08-24T03:20:19.476Z,0
2018-08-24T03:21:00.029Z,0
2018-08-24T03:21:40.605Z,0
2018-08-24T03:22:21.193Z,0
2018-08-24T03:23:01.807Z,0
2018-08-24T03:23:42.365Z,0
2018-08-24T03:24:22.941Z,0
2018-08-24T03:25:03.496Z,0
2018-08-24T03:25:44.057Z,0
2018-08-24T03:26:24.616Z,0
2018-08-24T03:27:05.181Z,0
2018-08-24T03:27:45.768Z,0
2018-08-24T03:28:26.340Z,0
2018-08-24T03:29:06.914Z,0
2018-08-24T03:29:47.462Z,0
2018-08-24T03:30:28.041Z,0
2018-08-24T03:31:08.603Z,0
2018-08-24T03:31:49.229Z,0
2018-08-24T03:32:29.986Z,4
2018-08-24T03:33:10.552Z,4
2018-08-24T03:33:51.108Z,4
2018-08-24T03:34:31.657Z,4
2018-08-24T03:35:12.216Z,0
2018-08-24T03:35:52.779Z,0
2018-08-24T03:36:33.472Z,4
2018-08-24T03:37:14.036Z,4
2018-08-24T03:37:54.595Z,4
2018-08-24T03:38:35.183Z,0
2018-08-24T03:39:15.749Z,4
2018-08-24T03:39:56.344Z,4
2018-08-24T03:40:36.916Z,8
2018-08-24T03:41:17.485Z,4
2018-08-24T03:41:58.045Z,8
2018-08-24T03:42:38.599Z,4
2018-08-24T03:43:19.168Z,8
2018-08-24T03:43:59.732Z,8
2018-08-24T03:44:40.300Z,12
2018-08-24T03:45:20.856Z,12
2018-08-24T03:46:01.547Z,12
2018-08-24T03:46:42.010Z,16
2018-08-24T03:47:22.576Z,16
2018-08-24T03:48:03.135Z,16
2018-08-24T03:48:43.695Z,16
2018-08-24T03:49:24.300Z,20
2018-08-24T03:50:04.865Z,24
2018-08-24T03:50:45.430Z,20
2018-08-24T03:51:25.980Z,24
2018-08-24T03:52:06.542Z,28
2018-08-24T03:52:47.186Z,32
2018-08-24T03:53:27.734Z,32
2018-08-24T03:54:08.311Z,36
2018-08-24T03:54:48.947Z,36
2018-08-24T03:55:29.494Z,44
2018-08-24T03:56:10.109Z,44
2018-08-24T03:56:50.666Z,44
2018-08-24T03:57:31.255Z,52
2018-08-24T03:58:11.811Z,56
2018-08-24T03:58:52.371Z,56
2018-08-24T03:59:32.941Z,64
2018-08-24T04:00:14.004Z,68
2018-08-24T04:00:54.076Z,72
2018-08-24T04:01:34.668Z,80
2018-08-24T04:02:15.213Z,84
2018-08-24T04:02:55.776Z,88
2018-08-24T04:03:36.345Z,96
2018-08-24T04:04:16.973Z,100
2018-08-24T04:04:57.548Z,108
2018-08-24T04:05:38.103Z,112
2018-08-24T04:06:18.657Z,124
2018-08-24T04:06:59.228Z,132
2018-08-24T04:07:39.817Z,140
2018-08-24T04:08:20.382Z,152
2018-08-24T04:09:00.946Z,160
2018-08-24T04:09:41.518Z,172
2018-08-24T04:10:22.133Z,184
2018-08-24T04:11:02.689Z,192
2018-08-24T04:11:43.300Z,208
2018-08-24T04:12:23.869Z,220
2018-08-24T04:13:04.428Z,236
2018-08-24T04:13:44.991Z,248
2018-08-24T04:14:25.556Z,268
2018-08-24T04:15:06.133Z,284
2018-08-24T04:15:46.717Z,308
2018-08-24T04:16:27.288Z,332
2018-08-24T04:17:07.858Z,360
2018-08-24T04:17:48.444Z,384
2018-08-24T04:18:29.044Z,408
2018-08-24T04:19:09.613Z,432
2018-08-24T04:19:50.173Z,460
2018-08-24T04:20:30.743Z,484
2018-08-24T04:21:11.304Z,504
2018-08-24T04:21:51.871Z,520
2018-08-24T04:22:32.461Z,536
2018-08-24T04:23:13.034Z,552
2018-08-24T04:23:53.597Z,568
2018-08-24T04:24:34.153Z,588
2018-08-24T04:25:14.725Z,612
2018-08-24T04:25:55.305Z,636
2018-08-24T04:26:35.877Z,660
2018-08-24T04:27:16.463Z,688
2018-08-24T04:27:57.054Z,716
2018-08-24T04:28:37.618Z,740
2018-08-24T04:29:18.178Z,760
2018-08-24T04:29:58.741Z,780
2018-08-24T04:30:39.303Z,804
2018-08-24T04:31:20.507Z,840
2018-08-24T04:32:00.438Z,876
2018-08-24T04:32:40.997Z,916
2018-08-24T04:33:21.580Z,976
2018-08-24T04:34:02.134Z,1036
2018-08-24T04:34:42.698Z,1092
2018-08-24T04:35:23.250Z,1148
2018-08-24T04:36:03.959Z,1184
2018-08-24T04:36:44.571Z,1212
2018-08-24T04:37:25.148Z,1260
2018-08-24T04:38:05.709Z,1304
2018-08-24T04:38:46.276Z,1344
2018-08-24T04:39:26.841Z,1356
2018-08-24T04:40:07.451Z,1356
2018-08-24T04:40:47.972Z,1336
2018-08-24T04:41:28.532Z,1296
2018-08-24T04:42:09.104Z,1252
2018-08-24T04:42:49.668Z,1212
2018-08-24T04:43:30.244Z,1176
2018-08-24T04:44:10.803Z,1120
2018-08-24T04:44:51.375Z,1060
2018-08-24T04:45:32.010Z,996
2018-08-24T04:46:12.510Z,932
2018-08-24T04:46:53.081Z,868
2018-08-24T04:47:33.663Z,808
2018-08-24T04:48:14.216Z,744
2018-08-24T04:48:54.778Z,688
2018-08-24T04:49:35.355Z,636
2018-08-24T04:50:15.954Z,584
2018-08-24T04:50:56.509Z,540
2018-08-24T04:51:37.143Z,504
2018-08-24T04:52:17.729Z,476
2018-08-24T04:52:58.309Z,468
2018-08-24T04:53:38.875Z,472
2018-08-24T04:54:19.454Z,484
2018-08-24T04:55:00.014Z,504
2018-08-24T04:55:40.590Z,528
2018-08-24T04:56:21.257Z,572
2018-08-24T04:57:01.841Z,612
2018-08-24T04:57:42.405Z,652
2018-08-24T04:58:23.062Z,712
2018-08-24T04:59:03.598Z,776
2018-08-24T04:59:44.175Z,844
2018-08-24T05:00:24.805Z,916
2018-08-24T05:01:05.381Z,976
2018-08-24T05:01:45.947Z,1032
2018-08-24T05:02:26.514Z,1092
2018-08-24T05:03:07.104Z,1148
2018-08-24T05:03:47.671Z,1204
2018-08-24T05:04:28.248Z,1240
2018-08-24T05:05:08.811Z,1264
2018-08-24T05:05:49.429Z,1276
2018-08-24T05:06:29.952Z,1300
2018-08-24T05:07:10.522Z,1332
2018-08-24T05:07:51.127Z,1388
2018-08-24T05:08:31.686Z,1448
2018-08-24T05:09:12.243Z,1512
2018-08-24T05:09:52.825Z,1556
2018-08-24T05:10:33.390Z,1580
2018-08-24T05:11:13.956Z,1572
2018-08-24T05:11:54.519Z,1528
2018-08-24T05:12:35.090Z,1456
2018-08-24T05:13:15.657Z,1376
2018-08-24T05:13:56.243Z,1304
2018-08-24T05:14:36.819Z,1228
2018-08-24T05:15:17.396Z,1164
2018-08-24T05:15:58.000Z,1120
2018-08-24T05:16:38.567Z,1084
2018-08-24T05:17:19.123Z,1060
2018-08-24T05:17:59.694Z,1040
2018-08-24T05:18:40.258Z,1016
2018-08-24T05:19:20.863Z,988
2018-08-24T05:20:01.444Z,968
2018-08-24T05:20:42.012Z,944
2018-08-24T05:21:22.637Z,896
2018-08-24T05:22:03.149Z,848
2018-08-24T05:22:43.754Z,808
2018-08-24T05:23:24.323Z,772
2018-08-24T05:24:04.911Z,756
2018-08-24T05:24:45.510Z,744
2018-08-24T05:25:26.049Z,752
2018-08-24T05:26:06.623Z,776
2018-08-24T05:26:47.170Z,804
2018-08-24T05:27:27.725Z,848
2018-08-24T05:28:08.391Z,908
2018-08-24T05:28:48.879Z,968
2018-08-24T05:29:29.442Z,1040
2018-08-24T05:30:10.003Z,1112
2018-08-24T05:30:50.575Z,1184
2018-08-24T05:31:31.163Z,1280
2018-08-24T05:32:11.763Z,1416
2018-08-24T05:32:52.329Z,1560
2018-08-24T05:33:32.885Z,1720
2018-08-24T05:34:13.444Z,1856
2018-08-24T05:34:54.007Z,1976
2018-08-24T05:35:34.634Z,2076
2018-08-24T05:36:15.149Z,2200
2018-08-24T05:36:55.720Z,2324
2018-08-24T05:37:36.288Z,2408
2018-08-24T05:38:16.837Z,2428
2018-08-24T05:38:57.410Z,2388
2018-08-24T05:39:37.985Z,2312
2018-08-24T05:40:18.547Z,2248
2018-08-24T05:40:59.103Z,2256
2018-08-24T05:41:39.670Z,2340
2018-08-24T05:42:20.238Z,2448
2018-08-24T05:43:00.800Z,2584
2018-08-24T05:43:41.362Z,2724
2018-08-24T05:44:21.922Z,2820
2018-08-24T05:45:02.573Z,2900
2018-08-24T05:45:43.143Z,3004
2018-08-24T05:46:23.685Z,3112
2018-08-24T05:47:04.252Z,3264
2018-08-24T05:47:44.818Z,3432
2018-08-24T05:48:25.389Z,3600
2018-08-24T05:49:05.990Z,3768
2018-08-24T05:49:46.553Z,3896
2018-08-24T05:50:27.110Z,3952
2018-08-24T05:51:07.680Z,3884
2018-08-24T05:51:48.242Z,3748
2018-08-24T05:52:28.837Z,3648
2018-08-24T05:53:09.416Z,3436
2018-08-24T05:53:49.966Z,3168
2018-08-24T05:54:30.543Z,2744
2018-08-24T05:55:11.109Z,2348
2018-08-24T05:55:51.685Z,2076
2018-08-24T05:56:32.260Z,1848
2018-08-24T05:57:12.853Z,1696
2018-08-24T05:57:53.436Z,1656
2018-08-24T05:58:34.031Z,1680
2018-08-24T05:59:14.603Z,1764
2018-08-24T05:59:55.159Z,1844
2018-08-24T06:00:35.732Z,1832
2018-08-24T06:01:16.304Z,1792
2018-08-24T06:01:56.873Z,1740
2018-08-24T06:02:37.434Z,1660
2018-08-24T06:03:18.058Z,1564
2018-08-24T06:03:58.670Z,1516
2018-08-24T06:04:39.242Z,1524
2018-08-24T06:05:19.818Z,1588
2018-08-24T06:06:00.397Z,1736
2018-08-24T06:06:40.958Z,1936
2018-08-24T06:07:21.527Z,2104
2018-08-24T06:08:02.081Z,2260
2018-08-24T06:08:42.673Z,2420
2018-08-24T06:09:23.259Z,2608
2018-08-24T06:10:03.845Z,2828
2018-08-24T06:10:44.407Z,3112
2018-08-24T06:11:25.012Z,3512
2018-08-24T06:12:05.576Z,3876
2018-08-24T06:12:46.144Z,4196
2018-08-24T06:13:26.809Z,4252
2018-08-24T06:14:07.337Z,4064
2018-08-24T06:14:47.921Z,4024
2018-08-24T06:15:28.481Z,3880
2018-08-24T06:16:09.056Z,3792
2018-08-24T06:16:49.753Z,3816
2018-08-24T06:17:30.202Z,3864
2018-08-24T06:18:10.765Z,3872
2018-08-24T06:18:51.333Z,3940
2018-08-24T06:19:31.908Z,4068
2018-08-24T06:20:12.498Z,4192
2018-08-24T06:20:53.060Z,4364
2018-08-24T06:21:33.617Z,4452
2018-08-24T06:22:14.177Z,4676
2018-08-24T06:22:54.743Z,4608
2018-08-24T06:23:35.320Z,4388
2018-08-24T06:24:15.979Z,4144
2018-08-24T06:24:56.519Z,3888
2018-08-24T06:25:37.728Z,3824
2018-08-24T06:26:18.380Z,3908
2018-08-24T06:26:58.936Z,4084
2018-08-24T06:27:39.520Z,4232
2018-08-24T06:28:20.103Z,4260
2018-08-24T06:29:00.717Z,4152
2018-08-24T06:29:41.288Z,4080
2018-08-24T06:30:21.849Z,3968
2018-08-24T06:31:02.513Z,3916
2018-08-24T06:31:43.130Z,4132
2018-08-24T06:32:23.802Z,4328
2018-08-24T06:33:04.373Z,3640
2018-08-24T06:33:44.946Z,3480
2018-08-24T06:34:25.601Z,3516
2018-08-24T06:35:06.174Z,3468
2018-08-24T06:35:46.800Z,3340
2018-08-24T06:36:27.364Z,3308
2018-08-24T06:37:08.169Z,3532
2018-08-24T06:37:48.883Z,3708
2018-08-24T06:38:29.906Z,3404
2018-08-24T06:39:10.394Z,2916
2018-08-24T06:39:50.967Z,2520
2018-08-24T06:40:31.664Z,2272
2018-08-24T06:41:12.471Z,2184
2018-08-24T06:41:53.149Z,2176
2018-08-24T06:42:33.675Z,2180
2018-08-24T06:43:14.250Z,2200
2018-08-24T06:43:54.823Z,2200
2018-08-24T06:44:35.375Z,2224
2018-08-24T06:45:16.165Z,2288
2018-08-24T06:45:56.732Z,2376
2018-08-24T06:46:37.296Z,2512
2018-08-24T06:47:17.967Z,2712
2018-08-24T06:47:58.652Z,2916
2018-08-24T06:48:39.229Z,3096
2018-08-24T06:49:19.795Z,3284
2018-08-24T06:50:00.402Z,3524
2018-08-24T06:50:41.082Z,3800
2018-08-24T06:51:21.642Z,4080
2018-08-24T06:52:02.229Z,4460
2018-08-24T06:52:42.826Z,4720
2018-08-24T06:53:23.823Z,4696
2018-08-24T06:54:04.437Z,4612
2018-08-24T06:54:44.885Z,4440
2018-08-24T06:55:25.516Z,4288
2018-08-24T06:56:06.117Z,4060
2018-08-24T06:56:46.701Z,3892
2018-08-24T06:57:27.314Z,3760
2018-08-24T06:58:07.945Z,3700
2018-08-24T06:58:48.661Z,3788
2018-08-24T06:59:29.317Z,4000
2018-08-24T07:00:10.079Z,4400
2018-08-24T07:00:50.707Z,4888
2018-08-24T07:01:31.304Z,5320
2018-08-24T07:02:11.895Z,5604
2018-08-24T07:02:52.508Z,6740
2018-08-24T07:03:33.158Z,7008
2018-08-24T07:04:13.747Z,8432
2018-08-24T07:04:54.315Z,9724
2018-08-24T07:05:34.963Z,10344
2018-08-24T07:06:15.562Z,9976
2018-08-24T07:06:56.160Z,8504
2018-08-24T07:07:36.711Z,7468
2018-08-24T07:08:17.346Z,7136
2018-08-24T07:08:57.880Z,5944
2018-08-24T07:09:38.459Z,5364
2018-08-24T07:10:19.064Z,4924
2018-08-24T07:10:59.626Z,4704
2018-08-24T07:11:40.167Z,4752
2018-08-24T07:12:20.747Z,4912
2018-08-24T07:13:01.528Z,5128
2018-08-24T07:13:42.049Z,5472
2018-08-24T07:14:22.653Z,6012
2018-08-24T07:15:03.207Z,6360
2018-08-24T07:15:43.764Z,6704
2018-08-24T07:16:24.347Z,8068
2018-08-24T07:17:04.966Z,7364
2018-08-24T07:17:45.559Z,6696
2018-08-24T07:18:26.186Z,7264
2018-08-24T07:19:06.739Z,7756
2018-08-24T07:19:47.385Z,10672
2018-08-24T07:20:28.016Z,11212
2018-08-24T07:21:08.604Z,9668
2018-08-24T07:21:49.213Z,10980
2018-08-24T07:22:29.777Z,19648
2018-08-24T07:23:10.372Z,12764
2018-08-24T07:23:50.905Z,8528
2018-08-24T07:24:31.495Z,7680
2018-08-24T07:25:12.176Z,7640
2018-08-24T07:25:52.660Z,7548
2018-08-24T07:26:33.292Z,9144
2018-08-24T07:27:13.864Z,18592
2018-08-24T07:27:54.422Z,14608
2018-08-24T07:28:34.991Z,31104
2018-08-24T07:29:15.558Z,19488
2018-08-24T07:29:56.125Z,49088
2018-08-24T07:30:36.682Z,45568
2018-08-24T07:31:17.240Z,38144
2018-08-24T07:31:57.811Z,37920
2018-08-24T07:32:38.370Z,47552
2018-08-24T07:33:18.948Z,48512
2018-08-24T07:33:59.507Z,37792
2018-08-24T07:34:40.072Z,16188
2018-08-24T07:35:20.665Z,11752
2018-08-24T07:36:01.240Z,10136
2018-08-24T07:36:41.810Z,10776
2018-08-24T07:37:22.380Z,13136
2018-08-24T07:38:02.940Z,11344
2018-08-24T07:38:43.505Z,19200
2018-08-24T07:39:24.117Z,10592
2018-08-24T07:40:04.638Z,8356
2018-08-24T07:40:45.215Z,8300
2018-08-24T07:41:25.862Z,7244
2018-08-24T07:42:06.356Z,8236
2018-08-24T07:42:46.920Z,9076
2018-08-24T07:43:27.488Z,9880
2018-08-24T07:44:08.052Z,27040
2018-08-24T07:44:48.632Z,32608
2018-08-24T07:45:29.194Z,15864
2018-08-24T07:46:09.777Z,32512
2018-08-24T07:46:50.352Z,38016
2018-08-24T07:47:30.912Z,23456
2018-08-24T07:48:11.472Z,21184
2018-08-24T07:48:52.114Z,36192
2018-08-24T07:49:32.675Z,27616
2018-08-24T07:50:13.244Z,39232
2018-08-24T07:50:53.855Z,34816
2018-08-24T07:51:34.391Z,26784
2018-08-24T07:52:14.982Z,17472
2018-08-24T07:52:55.558Z,11900
2018-08-24T07:53:36.130Z,8532
2018-08-24T07:54:16.695Z,11320
2018-08-24T07:54:57.259Z,6980
2018-08-24T07:55:37.822Z,6020
2018-08-24T07:56:18.385Z,5484
2018-08-24T07:56:58.996Z,5368
2018-08-24T07:57:39.528Z,5320
2018-08-24T07:58:20.089Z,5196
2018-08-24T07:59:00.680Z,5056
2018-08-24T07:59:41.279Z,5080
2018-08-24T08:00:21.848Z,5200
2018-08-24T08:01:02.457Z,5412
2018-08-24T08:01:43.021Z,5544
2018-08-24T08:02:23.601Z,5800
2018-08-24T08:03:04.176Z,6004
2018-08-24T08:03:44.741Z,5960
2018-08-24T08:04:25.305Z,5524
2018-08-24T08:05:05.897Z,4888
2018-08-24T08:05:46.479Z,4260
2018-08-24T08:06:27.052Z,3824
2018-08-24T08:07:07.654Z,3584
2018-08-24T08:07:48.227Z,3740
2018-08-24T08:08:28.791Z,3820
2018-08-24T08:09:09.357Z,4088
2018-08-24T08:09:49.922Z,4300
2018-08-24T08:10:30.492Z,4260
2018-08-24T08:11:11.046Z,4052
2018-08-24T08:11:51.640Z,3808
2018-08-24T08:12:32.291Z,3544
2018-08-24T08:13:12.848Z,3288
2018-08-24T08:13:53.403Z,3060
2018-08-24T08:14:34.013Z,2840
2018-08-24T08:15:14.570Z,2720
2018-08-24T08:15:55.142Z,2652
2018-08-24T08:16:35.710Z,2524
2018-08-24T08:17:16.288Z,2296
2018-08-24T08:17:56.856Z,2076
2018-08-24T08:18:37.416Z,1936
2018-08-24T08:19:17.962Z,1844
2018-08-24T08:19:58.571Z,1772
2018-08-24T08:20:39.147Z,1712
2018-08-24T08:21:19.745Z,1608
2018-08-24T08:22:00.311Z,1524
2018-08-24T08:22:40.880Z,1508
2018-08-24T08:23:21.475Z,1496
2018-08-24T08:24:02.048Z,1488
2018-08-24T08:24:42.661Z,1484
2018-08-24T08:25:23.227Z,1420
2018-08-24T08:26:03.790Z,1368
2018-08-24T08:26:44.379Z,1412
2018-08-24T08:27:24.944Z,1556
2018-08-24T08:28:05.556Z,1732
2018-08-24T08:28:46.136Z,1864
2018-08-24T08:29:26.687Z,1972
2018-08-24T08:30:07.264Z,2080
2018-08-24T08:30:47.868Z,2168
2018-08-24T08:31:28.664Z,2236
2018-08-24T08:32:09.233Z,2216
2018-08-24T08:32:49.817Z,2196
2018-08-24T08:33:30.386Z,2284
2018-08-24T08:34:10.951Z,2412
2018-08-24T08:34:51.518Z,2540
2018-08-24T08:35:32.088Z,2640
2018-08-24T08:36:12.657Z,2776
2018-08-24T08:36:53.214Z,2956
2018-08-24T08:37:33.804Z,3188
2018-08-24T08:38:14.370Z,3468
2018-08-24T08:38:55.021Z,3844
2018-08-24T08:39:35.544Z,4372
2018-08-24T08:40:16.110Z,5008
2018-08-24T08:40:56.688Z,5528
2018-08-24T08:41:37.237Z,5884
2018-08-24T08:42:17.859Z,6012
2018-08-24T08:42:58.395Z,7100
2018-08-24T08:43:39.124Z,8608
2018-08-24T08:44:19.738Z,10504
2018-08-24T08:45:00.418Z,12048
2018-08-24T08:45:40.936Z,13944
2018-08-24T08:46:21.528Z,14096
2018-08-24T08:47:02.111Z,15844
2018-08-24T08:47:42.692Z,15316
2018-08-24T08:48:23.275Z,15476
2018-08-24T08:49:03.935Z,14708
2018-08-24T08:49:44.552Z,14060
2018-08-24T08:50:25.141Z,13348
2018-08-24T08:51:05.716Z,12400
2018-08-24T08:51:46.345Z,10980
2018-08-24T08:52:26.885Z,9756
2018-08-24T08:53:07.476Z,8492
2018-08-24T08:53:48.046Z,7960
2018-08-24T08:54:28.675Z,8060
2018-08-24T08:55:09.254Z,10092
2018-08-24T08:55:49.828Z,10752
2018-08-24T08:56:30.428Z,10608
2018-08-24T08:57:10.993Z,10008
2018-08-24T08:57:51.584Z,8692
2018-08-24T08:58:32.146Z,8472
2018-08-24T08:59:12.724Z,9652
2018-08-24T08:59:53.297Z,11892
2018-08-24T09:00:33.863Z,13300
2018-08-24T09:01:14.428Z,13808
2018-08-24T09:01:55.142Z,14224
2018-08-24T09:02:35.730Z,14444
2018-08-24T09:03:16.266Z,14316
2018-08-24T09:03:56.863Z,14572
2018-08-24T09:04:37.641Z,13940
2018-08-24T09:05:18.295Z,12800
2018-08-24T09:05:59.192Z,12528
2018-08-24T09:06:39.736Z,11352
2018-08-24T09:07:20.304Z,9928
2018-08-24T09:08:00.862Z,10140
2018-08-24T09:08:41.439Z,11216
2018-08-24T09:09:22.012Z,11492
2018-08-24T09:10:02.566Z,11416
2018-08-24T09:10:43.159Z,10620
2018-08-24T09:11:23.733Z,11152
2018-08-24T09:12:04.278Z,11740
2018-08-24T09:12:44.868Z,11796
2018-08-24T09:13:25.427Z,9444
2018-08-24T09:14:06.002Z,8676
2018-08-24T09:14:46.573Z,9056
2018-08-24T09:15:27.163Z,8832
2018-08-24T09:16:07.731Z,8416
2018-08-24T09:16:48.301Z,8544
2018-08-24T09:17:28.937Z,9732
2018-08-24T09:18:09.523Z,10644
2018-08-24T09:18:50.207Z,11048
2018-08-24T09:19:30.827Z,11296
2018-08-24T09:20:11.385Z,11656
2018-08-24T09:20:51.939Z,11680
2018-08-24T09:21:32.563Z,11444
2018-08-24T09:22:13.140Z,11476
2018-08-24T09:22:53.789Z,10640
2018-08-24T09:23:34.331Z,10672